Time;durP1;ratioP1;P1;durP2;ratioP2;P2;SDS_P1;SDS_P2;PMS_P1;PMS_P2;Temp;Humidity;BMP_temperature;BMP_pressure;BME280_temperature;BME280_humidity;BME280_pressure;Samples;Min_cycle;Max_cycle;Signal;HPM_P1;HPM_P2
2021/05/19 00:01:20;;;;;;;17.08;15.23;;;;;;;;;;5079275;28;20502;-76
2021/05/19 00:03:46;;;;;;;17.00;15.10;;;;;;;;;;5052333;28;20177;-74
2021/05/19 00:06:12;;;;;;;20.48;16.08;;;;;;;;;;5063018;28;20246;-75
2021/05/19 00:08:39;;;;;;;20.40;16.98;;;;;;;;;;5061949;28;20596;-74
2021/05/19 00:11:05;;;;;;;20.63;18.00;;;;;;;;;;5060679;28;20227;-74
2021/05/19 00:13:33;;;;;;;20.52;17.95;;;;;;;;;;5060507;28;20230;-75
2021/05/19 00:15:59;;;;;;;21.20;18.67;;;;;;;;;;5058914;28;20182;-76
2021/05/19 00:18:25;;;;;;;22.35;19.23;;;;;;;;;;5066243;28;20185;-75
2021/05/19 00:20:51;;;;;;;21.27;18.63;;;;;;;;;;5072944;28;20199;-74
2021/05/19 00:23:17;;;;;;;20.90;18.20;;;;;;;;;;5069024;28;20435;-76
2021/05/19 00:25:43;;;;;;;23.38;19.95;;;;;;;;;;5081737;28;20174;-75
2021/05/19 00:28:09;;;;;;;22.23;18.70;;;;;;;;;;5081104;28;20195;-75
2021/05/19 00:30:37;;;;;;;23.30;18.05;;;;;;;;;;5073563;28;20196;-75
2021/05/19 00:33:03;;;;;;;23.58;19.08;;;;;;;;;;5055878;28;20172;-76
2021/05/19 00:35:29;;;;;;;23.65;19.00;;;;;;;;;;5059490;28;20179;-75
2021/05/19 00:37:56;;;;;;;22.10;18.95;;;;;;;;;;5082167;28;20173;-76
2021/05/19 00:40:22;;;;;;;21.70;18.95;;;;;;;;;;5068131;28;20200;-75
2021/05/19 00:42:48;;;;;;;23.10;19.58;;;;;;;;;;5055597;28;20191;-76
2021/05/19 00:45:14;;;;;;;26.17;19.35;;;;;;;;;;5055485;28;20193;-76
2021/05/19 00:47:41;;;;;;;25.65;20.38;;;;;;;;;;5055437;28;20188;-76
2021/05/19 00:50:12;;;;;;;24.23;20.35;;;;;;;;;;5086389;28;20591;-74
2021/05/19 00:52:38;;;;;;;25.00;20.13;;;;;;;;;;5057097;28;20562;-75
2021/05/19 00:55:05;;;;;;;28.90;22.40;;;;;;;;;;5065387;28;20221;-75
2021/05/19 00:57:31;;;;;;;25.70;20.02;;;;;;;;;;5055146;28;20525;-75
2021/05/19 00:59:59;;;;;;;26.85;21.30;;;;;;;;;;5082589;28;20691;-76
2021/05/19 01:02:25;;;;;;;26.92;21.80;;;;;;;;;;5066665;28;20177;-74
2021/05/19 01:04:52;;;;;;;27.23;20.20;;;;;;;;;;5065197;28;20175;-75
2021/05/19 01:07:25;;;;;;;25.63;20.67;;;;;;;;;;5064180;28;20684;-75
2021/05/19 01:09:51;;;;;;;23.20;18.80;;;;;;;;;;5059204;28;20200;-77
2021/05/19 01:12:18;;;;;;;28.17;20.85;;;;;;;;;;5055381;28;20231;-76
2021/05/19 01:14:45;;;;;;;26.98;21.02;;;;;;;;;;5059535;28;20187;-77
2021/05/19 01:17:12;;;;;;;27.75;21.63;;;;;;;;;;5075252;28;20223;-76
2021/05/19 01:19:48;;;;;;;26.13;21.08;;;;;;;;;;5063396;28;20204;-75
2021/05/19 01:22:21;;;;;;;27.05;21.25;;;;;;;;;;5055073;28;20188;-76
2021/05/19 01:24:49;;;;;;;26.67;21.80;;;;;;;;;;5070940;28;20254;-75
2021/05/19 01:27:15;;;;;;;25.90;20.15;;;;;;;;;;5080035;28;20647;-75
2021/05/19 01:29:41;;;;;;;27.92;22.48;;;;;;;;;;5070882;28;20224;-77
2021/05/19 01:32:07;;;;;;;29.40;22.67;;;;;;;;;;5059939;28;20210;-75
2021/05/19 01:34:34;;;;;;;28.92;21.90;;;;;;;;;;5059590;28;20234;-76
2021/05/19 01:37:00;;;;;;;30.65;22.75;;;;;;;;;;5060830;28;20259;-74
2021/05/19 01:39:26;;;;;;;25.13;21.20;;;;;;;;;;5060076;28;20208;-75
2021/05/19 01:41:52;;;;;;;32.55;24.15;;;;;;;;;;5062095;28;20181;-76
2021/05/19 01:44:19;;;;;;;27.48;22.42;;;;;;;;;;5065567;28;20650;-76
2021/05/19 01:46:46;;;;;;;34.05;25.50;;;;;;;;;;5067894;28;20184;-76
2021/05/19 01:49:14;;;;;;;29.63;22.35;;;;;;;;;;5062372;28;20263;-76
2021/05/19 01:51:40;;;;;;;32.75;23.80;;;;;;;;;;5067473;28;20168;-75
2021/05/19 01:54:08;;;;;;;30.25;23.13;;;;;;;;;;5074345;28;20529;-76
2021/05/19 01:56:38;;;;;;;32.08;24.25;;;;;;;;;;5058583;28;20542;-76
2021/05/19 01:59:04;;;;;;;30.08;23.55;;;;;;;;;;5060212;28;20204;-77
2021/05/19 02:01:30;;;;;;;28.58;22.30;;;;;;;;;;5063593;28;20184;-75
2021/05/19 02:04:06;;;;;;;30.02;22.67;;;;;;;;;;5053894;28;20182;-75
2021/05/19 02:06:44;;;;;;;31.70;23.75;;;;;;;;;;5061907;28;20597;-75
2021/05/19 02:09:10;;;;;;;30.15;22.38;;;;;;;;;;5053922;28;20291;-77
2021/05/19 02:11:36;;;;;;;31.00;23.95;;;;;;;;;;5059610;28;20173;-74
2021/05/19 02:14:02;;;;;;;29.10;22.80;;;;;;;;;;5080223;28;20167;-75
2021/05/19 02:16:28;;;;;;;25.98;21.77;;;;;;;;;;5063241;28;20181;-75
2021/05/19 02:18:54;;;;;;;27.20;22.02;;;;;;;;;;5054840;28;20208;-75
2021/05/19 02:21:20;;;;;;;28.33;22.70;;;;;;;;;;5060057;28;20530;-75
2021/05/19 02:23:46;;;;;;;29.70;23.30;;;;;;;;;;5054932;28;20588;-76
2021/05/19 02:26:12;;;;;;;26.95;20.65;;;;;;;;;;5072830;28;20235;-73
2021/05/19 02:28:38;;;;;;;24.92;21.40;;;;;;;;;;5074042;28;20192;-74
2021/05/19 02:31:04;;;;;;;28.08;21.23;;;;;;;;;;5068968;28;20183;-75
2021/05/19 02:33:30;;;;;;;29.17;22.42;;;;;;;;;;5072156;28;20177;-74
2021/05/19 02:35:57;;;;;;;26.23;21.77;;;;;;;;;;5055300;28;20208;-74
2021/05/19 02:38:23;;;;;;;24.23;21.58;;;;;;;;;;5053750;28;20259;-75
2021/05/19 02:40:49;;;;;;;26.92;21.90;;;;;;;;;;5060940;28;20187;-75
2021/05/19 02:43:15;;;;;;;27.90;22.80;;;;;;;;;;5079409;28;20183;-76
2021/05/19 02:45:41;;;;;;;26.08;21.05;;;;;;;;;;5076310;28;20181;-75
2021/05/19 02:48:07;;;;;;;26.80;22.10;;;;;;;;;;5061090;28;20200;-75
2021/05/19 02:50:33;;;;;;;25.67;21.27;;;;;;;;;;5058319;28;20520;-74
2021/05/19 02:52:59;;;;;;;25.25;21.63;;;;;;;;;;5065780;28;20168;-74
2021/05/19 02:55:26;;;;;;;25.73;22.15;;;;;;;;;;5073127;28;20233;-75
2021/05/19 02:57:52;;;;;;;24.20;21.17;;;;;;;;;;5061437;28;20540;-76
2021/05/19 03:00:18;;;;;;;27.23;22.70;;;;;;;;;;5058265;28;20239;-77
2021/05/19 03:02:47;;;;;;;29.00;23.05;;;;;;;;;;5069312;28;20661;-75
2021/05/19 03:05:13;;;;;;;25.83;22.05;;;;;;;;;;5054833;28;20699;-75
2021/05/19 03:07:39;;;;;;;26.15;21.13;;;;;;;;;;5059249;28;20199;-76
2021/05/19 03:10:05;;;;;;;25.63;21.65;;;;;;;;;;5058912;28;20557;-76
2021/05/19 03:12:31;;;;;;;22.35;18.30;;;;;;;;;;5055156;28;20177;-75
2021/05/19 03:14:57;;;;;;;21.23;18.50;;;;;;;;;;5071879;28;20176;-77
2021/05/19 03:17:23;;;;;;;25.38;21.40;;;;;;;;;;5066291;28;20184;-76
2021/05/19 03:19:49;;;;;;;23.55;20.25;;;;;;;;;;5070879;28;20231;-76
2021/05/19 03:22:16;;;;;;;22.23;19.10;;;;;;;;;;5058187;28;20209;-76
2021/05/19 03:24:42;;;;;;;27.17;20.52;;;;;;;;;;5052916;28;20261;-76
2021/05/19 03:27:08;;;;;;;24.50;20.15;;;;;;;;;;5077781;28;20184;-75
2021/05/19 03:29:34;;;;;;;23.92;20.17;;;;;;;;;;5058521;28;20291;-75
2021/05/19 03:32:00;;;;;;;23.33;18.80;;;;;;;;;;5075655;28;20271;-75
2021/05/19 03:34:26;;;;;;;24.15;20.45;;;;;;;;;;5062620;28;20439;-76
2021/05/19 03:36:52;;;;;;;24.85;21.25;;;;;;;;;;5052887;28;20177;-76
2021/05/19 03:39:19;;;;;;;24.93;21.20;;;;;;;;;;5061916;28;20195;-75
2021/05/19 03:41:45;;;;;;;25.00;21.50;;;;;;;;;;5081478;28;20427;-75
2021/05/19 03:44:11;;;;;;;19.27;16.70;;;;;;;;;;5084644;28;20226;-74
2021/05/19 03:46:37;;;;;;;24.15;17.83;;;;;;;;;;5064918;28;20290;-76
2021/05/19 03:49:03;;;;;;;22.77;19.23;;;;;;;;;;5075036;28;20211;-76
2021/05/19 03:51:30;;;;;;;19.48;17.48;;;;;;;;;;5072539;28;20173;-75
2021/05/19 03:53:56;;;;;;;19.17;17.25;;;;;;;;;;5071745;28;20629;-77
2021/05/19 03:56:22;;;;;;;20.20;18.10;;;;;;;;;;5076617;28;20176;-75
2021/05/19 03:58:48;;;;;;;19.83;17.73;;;;;;;;;;5063377;28;20280;-76
2021/05/19 04:01:15;;;;;;;21.17;17.88;;;;;;;;;;5068115;28;20191;-76
2021/05/19 04:03:41;;;;;;;20.98;18.77;;;;;;;;;;5067182;28;20173;-74
2021/05/19 04:06:07;;;;;;;20.60;17.55;;;;;;;;;;5059882;28;20272;-76
2021/05/19 04:08:34;;;;;;;21.95;18.60;;;;;;;;;;5055879;28;20235;-75
2021/05/19 04:11:00;;;;;;;23.88;19.48;;;;;;;;;;5066247;28;20255;-76
2021/05/19 04:13:27;;;;;;;23.60;18.85;;;;;;;;;;5059611;28;20192;-75
2021/05/19 04:15:53;;;;;;;20.60;18.48;;;;;;;;;;5064385;28;20178;-74
2021/05/19 04:18:19;;;;;;;21.17;18.95;;;;;;;;;;5060411;28;20239;-75
2021/05/19 04:20:45;;;;;;;21.25;19.00;;;;;;;;;;5067223;28;20199;-75
2021/05/19 04:23:11;;;;;;;22.70;20.00;;;;;;;;;;5055987;28;20180;-76
2021/05/19 04:25:37;;;;;;;22.27;19.30;;;;;;;;;;5071242;28;20172;-76
2021/05/19 04:28:04;;;;;;;22.40;19.30;;;;;;;;;;5075587;28;20684;-75
2021/05/19 04:30:30;;;;;;;20.60;18.40;;;;;;;;;;5066980;28;20197;-75
2021/05/19 04:32:56;;;;;;;23.67;21.10;;;;;;;;;;5075721;28;20217;-76
2021/05/19 04:35:22;;;;;;;19.48;17.48;;;;;;;;;;5070909;28;20168;-75
2021/05/19 04:37:48;;;;;;;19.67;17.67;;;;;;;;;;5061165;28;20182;-77
2021/05/19 04:40:14;;;;;;;18.17;16.35;;;;;;;;;;5075805;28;20541;-77
2021/05/19 04:42:40;;;;;;;20.67;18.40;;;;;;;;;;5080499;28;20532;-75
2021/05/19 04:45:07;;;;;;;21.33;18.48;;;;;;;;;;5067216;28;20200;-75
2021/05/19 04:47:33;;;;;;;21.55;18.90;;;;;;;;;;5057354;28;20636;-74
2021/05/19 04:49:59;;;;;;;20.13;18.02;;;;;;;;;;5082573;28;20575;-76
2021/05/19 04:52:25;;;;;;;20.13;17.92;;;;;;;;;;5067206;28;20181;-77
2021/05/19 04:54:51;;;;;;;19.67;17.40;;;;;;;;;;5075199;28;20529;-76
2021/05/19 04:57:17;;;;;;;21.45;19.23;;;;;;;;;;5068708;28;20185;-75
2021/05/19 04:59:43;;;;;;;24.70;18.80;;;;;;;;;;5068653;28;20196;-75
2021/05/19 05:02:09;;;;;;;22.17;19.20;;;;;;;;;;5075746;28;20259;-76
2021/05/19 05:04:35;;;;;;;26.83;22.17;;;;;;;;;;5069498;28;20176;-76
2021/05/19 05:07:01;;;;;;;41.38;32.92;;;;;;;;;;5055738;28;20217;-74
2021/05/19 05:09:28;;;;;;;42.05;37.45;;;;;;;;;;5055158;28;20582;-76
2021/05/19 05:11:54;;;;;;;35.05;30.23;;;;;;;;;;5066274;28;20184;-75
2021/05/19 05:14:21;;;;;;;33.03;29.10;;;;;;;;;;5059280;28;20185;-76
2021/05/19 05:16:48;;;;;;;184.25;98.38;;;;;;;;;;5065986;28;20173;-74
2021/05/19 05:19:14;;;;;;;38.83;29.38;;;;;;;;;;5059466;28;20617;-75
2021/05/19 05:21:40;;;;;;;30.38;24.45;;;;;;;;;;5055151;28;20172;-76
2021/05/19 05:24:06;;;;;;;69.72;40.33;;;;;;;;;;5078749;28;20171;-76
2021/05/19 05:26:32;;;;;;;27.92;22.05;;;;;;;;;;5067073;28;20176;-76
2021/05/19 05:28:58;;;;;;;26.20;22.73;;;;;;;;;;5084520;28;20260;-75
2021/05/19 05:31:24;;;;;;;23.65;21.10;;;;;;;;;;5086502;28;20646;-75
2021/05/19 05:33:51;;;;;;;24.02;21.20;;;;;;;;;;5079108;28;20202;-78
2021/05/19 05:36:17;;;;;;;25.73;21.58;;;;;;;;;;5060231;28;20649;-76
2021/05/19 05:38:43;;;;;;;25.05;22.35;;;;;;;;;;5059856;28;20236;-76
2021/05/19 05:41:09;;;;;;;25.95;22.65;;;;;;;;;;5059723;28;20184;-75
2021/05/19 05:43:35;;;;;;;26.90;23.10;;;;;;;;;;5059705;28;20526;-76
2021/05/19 05:46:01;;;;;;;23.92;21.20;;;;;;;;;;5057324;28;20212;-75
2021/05/19 05:48:27;;;;;;;24.75;22.05;;;;;;;;;;5054296;28;20197;-76
2021/05/19 05:50:53;;;;;;;24.73;22.02;;;;;;;;;;5055705;28;20516;-76
2021/05/19 05:53:19;;;;;;;23.52;20.50;;;;;;;;;;5061289;28;20179;-75
2021/05/19 05:55:45;;;;;;;24.63;21.17;;;;;;;;;;5079634;28;20168;-76
2021/05/19 05:58:12;;;;;;;24.55;20.05;;;;;;;;;;5066732;28;20508;-75
2021/05/19 06:00:38;;;;;;;25.90;23.27;;;;;;;;;;5059693;28;20195;-78
2021/05/19 06:03:04;;;;;;;24.52;21.70;;;;;;;;;;5059822;28;20196;-74
2021/05/19 06:05:33;;;;;;;23.10;20.60;;;;;;;;;;5057137;28;20529;-75
2021/05/19 06:08:01;;;;;;;22.92;20.42;;;;;;;;;;5059418;28;20570;-76
2021/05/19 06:10:27;;;;;;;22.15;19.88;;;;;;;;;;5056957;28;20870;-75
2021/05/19 06:12:53;;;;;;;20.25;17.85;;;;;;;;;;5062223;28;20180;-76
2021/05/19 06:15:19;;;;;;;17.70;15.90;;;;;;;;;;5057531;28;20172;-76
2021/05/19 06:17:45;;;;;;;17.35;15.55;;;;;;;;;;5066330;28;20429;-76
2021/05/19 06:20:12;;;;;;;17.77;15.93;;;;;;;;;;5054022;28;20186;-75
2021/05/19 06:22:38;;;;;;;17.92;16.08;;;;;;;;;;5064458;28;20182;-76
2021/05/19 06:25:04;;;;;;;17.40;15.68;;;;;;;;;;5052439;28;20267;-76
2021/05/19 06:27:30;;;;;;;15.43;13.98;;;;;;;;;;5054293;28;20593;-76
2021/05/19 06:29:57;;;;;;;15.10;13.65;;;;;;;;;;5053951;28;20232;-75
2021/05/19 06:32:23;;;;;;;16.42;14.73;;;;;;;;;;5053948;28;20220;-76
2021/05/19 06:34:49;;;;;;;16.50;14.90;;;;;;;;;;5058936;28;20170;-75
2021/05/19 06:37:15;;;;;;;15.50;13.90;;;;;;;;;;5053457;28;20180;-76
2021/05/19 06:39:41;;;;;;;14.48;13.07;;;;;;;;;;5053501;28;20194;-75
2021/05/19 06:42:07;;;;;;;11.65;10.55;;;;;;;;;;5053509;28;20194;-75
2021/05/19 06:44:33;;;;;;;12.20;11.10;;;;;;;;;;5053245;28;20267;-75
2021/05/19 06:46:59;;;;;;;13.07;11.88;;;;;;;;;;5053809;28;20185;-76
2021/05/19 06:49:25;;;;;;;13.00;11.73;;;;;;;;;;5056059;28;20278;-78
2021/05/19 06:51:51;;;;;;;14.65;13.18;;;;;;;;;;5062749;28;20775;-77
2021/05/19 06:54:17;;;;;;;14.90;13.20;;;;;;;;;;5069410;28;20212;-76
2021/05/19 06:56:44;;;;;;;16.95;15.35;;;;;;;;;;5062254;28;20183;-76
2021/05/19 06:59:14;;;;;;;13.30;12.05;;;;;;;;;;5069331;28;20217;-75
2021/05/19 07:01:40;;;;;;;13.05;11.77;;;;;;;;;;5068065;28;20188;-75
2021/05/19 07:04:07;;;;;;;12.35;11.25;;;;;;;;;;5068906;28;20180;-75
2021/05/19 07:06:33;;;;;;;13.90;12.60;;;;;;;;;;5069557;28;20206;-76
2021/05/19 07:08:59;;;;;;;14.18;12.90;;;;;;;;;;5072156;28;20656;-75
2021/05/19 07:11:25;;;;;;;13.18;11.93;;;;;;;;;;5057594;28;20183;-77
2021/05/19 07:13:53;;;;;;;14.25;12.85;;;;;;;;;;5065717;28;20534;-77
2021/05/19 07:16:22;;;;;;;14.63;11.85;;;;;;;;;;5048749;28;20541;-76
2021/05/19 07:18:48;;;;;;;13.50;12.30;;;;;;;;;;5069690;28;20779;-77
2021/05/19 07:21:14;;;;;;;12.52;11.30;;;;;;;;;;5055891;28;20713;-74
2021/05/19 07:23:40;;;;;;;14.60;13.10;;;;;;;;;;5065427;28;20287;-76
2021/05/19 07:26:06;;;;;;;13.07;11.87;;;;;;;;;;5054832;28;20420;-76
2021/05/19 07:28:32;;;;;;;11.07;10.02;;;;;;;;;;5057232;28;20898;-75
2021/05/19 07:30:58;;;;;;;11.95;10.85;;;;;;;;;;5051972;28;20177;-76
2021/05/19 07:33:25;;;;;;;12.55;11.45;;;;;;;;;;5054636;28;20608;-76
2021/05/19 07:35:51;;;;;;;11.20;10.20;;;;;;;;;;5075718;28;20242;-74
2021/05/19 07:38:17;;;;;;;12.18;10.63;;;;;;;;;;5072979;28;20697;-76
2021/05/19 07:40:43;;;;;;;8.05;7.30;;;;;;;;;;5055007;28;20584;-77
2021/05/19 07:43:09;;;;;;;9.05;8.15;;;;;;;;;;5055278;28;20189;-75
2021/05/19 07:45:36;;;;;;;9.27;8.48;;;;;;;;;;5062025;28;20231;-76
2021/05/19 07:48:02;;;;;;;8.93;8.02;;;;;;;;;;5060619;28;20230;-76
2021/05/19 07:50:28;;;;;;;8.18;7.47;;;;;;;;;;5057019;28;20211;-76
2021/05/19 07:52:55;;;;;;;8.80;7.95;;;;;;;;;;5062193;28;20214;-75
2021/05/19 07:55:25;;;;;;;8.55;7.75;;;;;;;;;;5064607;28;20606;-76
2021/05/19 07:57:59;;;;;;;8.10;7.40;;;;;;;;;;5052184;28;20185;-75
2021/05/19 08:02:51;;;;;;;6.60;6.10;;;;;;;;;;5050439;28;20204;-76
2021/05/19 08:05:17;;;;;;;7.95;7.35;;;;;;;;;;5047274;28;20239;-75
2021/05/19 08:07:43;;;;;;;8.80;8.10;;;;;;;;;;5061389;28;20283;-76
2021/05/19 08:10:09;;;;;;;10.18;9.18;;;;;;;;;;5048919;28;20201;-75
2021/05/19 08:12:35;;;;;;;8.20;7.60;;;;;;;;;;5059861;28;20187;-75
2021/05/19 08:15:02;;;;;;;11.10;10.10;;;;;;;;;;5048995;28;20185;-75
2021/05/19 08:17:28;;;;;;;8.80;8.10;;;;;;;;;;5068510;28;20186;-77
2021/05/19 08:19:54;;;;;;;9.67;8.30;;;;;;;;;;5049460;28;20231;-76
2021/05/19 08:22:20;;;;;;;8.80;8.00;;;;;;;;;;5060642;28;20422;-76
2021/05/19 08:24:46;;;;;;;7.28;6.68;;;;;;;;;;5049597;28;20450;-76
2021/05/19 08:27:12;;;;;;;6.90;6.20;;;;;;;;;;5062656;28;20198;-76
2021/05/19 08:29:39;;;;;;;6.85;6.32;;;;;;;;;;5052590;28;20213;-78
2021/05/19 08:32:06;;;;;;;9.88;8.98;;;;;;;;;;5060703;28;20191;-75
2021/05/19 08:34:32;;;;;;;7.32;6.72;;;;;;;;;;5052218;28;20185;-76
2021/05/19 08:36:58;;;;;;;7.70;7.00;;;;;;;;;;5059410;28;20184;-76
2021/05/19 08:39:24;;;;;;;9.35;8.55;;;;;;;;;;5052335;28;20204;-76
2021/05/19 08:41:51;;;;;;;7.30;6.68;;;;;;;;;;5057612;28;20185;-74
2021/05/19 08:44:19;;;;;;;7.43;6.82;;;;;;;;;;5058282;28;20196;-74
2021/05/19 08:46:46;;;;;;;7.80;7.00;;;;;;;;;;5058615;28;20264;-76
2021/05/19 08:49:13;;;;;;;9.40;7.03;;;;;;;;;;5053779;28;20471;-76
2021/05/19 08:51:39;;;;;;;6.50;5.90;;;;;;;;;;5058585;28;20419;-77
2021/05/19 08:54:08;;;;;;;7.18;6.50;;;;;;;;;;5076856;28;20429;-77
2021/05/19 08:56:38;;;;;;;8.90;6.95;;;;;;;;;;5063220;28;20541;-77
2021/05/19 08:59:04;;;;;;;8.95;7.35;;;;;;;;;;5066166;28;20213;-77
2021/05/19 09:01:36;;;;;;;9.60;6.60;;;;;;;;;;5064176;28;20203;-75
2021/05/19 09:04:03;;;;;;;8.73;7.90;;;;;;;;;;5061913;28;20899;-76
2021/05/19 09:06:29;;;;;;;7.10;6.38;;;;;;;;;;5051313;28;21221;-75
2021/05/19 09:08:56;;;;;;;7.35;6.75;;;;;;;;;;5064785;28;20213;-75
2021/05/19 09:11:22;;;;;;;7.37;6.70;;;;;;;;;;5065020;28;20207;-76
2021/05/19 09:13:48;;;;;;;7.20;6.47;;;;;;;;;;5065095;28;20438;-75
2021/05/19 09:16:25;;;;;;;6.17;5.77;;;;;;;;;;5071261;28;20176;-74
2021/05/19 09:18:54;;;;;;;5.53;5.10;;;;;;;;;;5069507;28;20499;-74
2021/05/19 09:21:38;;;;;;;6.73;6.13;;;;;;;;;;5056175;28;21017;-73
2021/05/19 09:24:08;;;;;;;5.73;5.33;;;;;;;;;;5058098;28;20443;-76
2021/05/19 09:26:34;;;;;;;5.80;5.37;;;;;;;;;;5051225;28;20443;-76
2021/05/19 09:29:25;;;;;;;6.10;5.60;;;;;;;;;;5055598;28;20502;-77
2021/05/19 09:31:55;;;;;;;6.33;5.73;;;;;;;;;;5061878;28;20406;-78
2021/05/19 09:34:22;;;;;;;6.60;6.00;;;;;;;;;;5050371;28;20403;-75
2021/05/19 09:36:48;;;;;;;6.73;6.13;;;;;;;;;;5073790;28;20414;-77
2021/05/19 09:39:14;;;;;;;6.60;6.00;;;;;;;;;;5054912;28;20428;-76
2021/05/19 09:41:41;;;;;;;6.90;6.30;;;;;;;;;;5061053;28;20441;-76
2021/05/19 09:44:09;;;;;;;6.93;6.33;;;;;;;;;;5056897;28;20411;-76
2021/05/19 09:46:38;;;;;;;7.90;7.17;;;;;;;;;;5074766;28;20827;-75
2021/05/19 09:49:23;;;;;;;6.10;5.60;;;;;;;;;;5053046;28;20522;-76
2021/05/19 09:51:58;;;;;;;6.43;5.60;;;;;;;;;;5059044;28;20428;-75
2021/05/19 09:54:29;;;;;;;5.80;5.40;;;;;;;;;;5060862;28;20957;-76
2021/05/19 09:57:05;;;;;;;5.80;5.40;;;;;;;;;;5066714;28;20427;-78
2021/05/19 09:59:32;;;;;;;6.90;6.40;;;;;;;;;;5050381;28;20444;-75
2021/05/19 10:02:00;;;;;;;6.30;5.70;;;;;;;;;;5055717;28;21070;-76
2021/05/19 10:04:28;;;;;;;7.27;5.83;;;;;;;;;;5057218;28;20880;-76
2021/05/19 10:06:54;;;;;;;5.70;5.30;;;;;;;;;;5070117;28;20445;-78
2021/05/19 10:09:20;;;;;;;5.60;5.20;;;;;;;;;;5066099;28;20462;-74
2021/05/19 10:11:47;;;;;;;5.40;5.00;;;;;;;;;;5079849;28;20913;-74
2021/05/19 10:14:13;;;;;;;4.70;4.40;;;;;;;;;;5072240;28;20912;-77
2021/05/19 10:16:41;;;;;;;5.57;5.10;;;;;;;;;;5049000;28;21225;-76
2021/05/19 10:19:09;;;;;;;5.37;4.97;;;;;;;;;;5057722;28;20780;-74
2021/05/19 10:21:36;;;;;;;5.63;5.17;;;;;;;;;;5048773;28;20411;-77
2021/05/19 10:24:07;;;;;;;4.47;4.17;;;;;;;;;;5077442;28;20417;-78
2021/05/19 10:26:53;;;;;;;4.97;4.57;;;;;;;;;;5049991;28;20415;-76
2021/05/19 10:29:37;;;;;;;4.50;4.20;;;;;;;;;;5074412;28;20467;-76
2021/05/19 10:32:26;;;;;;;4.40;4.00;;;;;;;;;;5081990;28;20421;-76
2021/05/19 10:34:53;;;;;;;3.83;3.53;;;;;;;;;;5054049;28;20422;-76
2021/05/19 10:37:28;;;;;;;3.40;3.10;;;;;;;;;;5063479;28;20421;-75
2021/05/19 10:40:13;;;;;;;3.20;3.00;;;;;;;;;;5078802;28;20445;-78
2021/05/19 10:42:42;;;;;;;4.00;3.70;;;;;;;;;;5067511;28;20435;-75
2021/05/19 10:45:13;;;;;;;4.00;3.70;;;;;;;;;;5056522;28;20510;-77
2021/05/19 10:47:39;;;;;;;3.30;3.00;;;;;;;;;;5065352;28;20435;-76
2021/05/19 10:50:16;;;;;;;4.20;3.50;;;;;;;;;;5051438;28;20808;-75
2021/05/19 10:58:51;;;;;;;2.77;2.57;;;;;;;;;;5049370;28;20414;-76
2021/05/19 11:01:18;;;;;;;3.83;3.53;;;;;;;;;;5063306;28;20946;-76
2021/05/19 11:04:03;;;;;;;3.53;3.23;;;;;;;;;;5049399;28;20407;-75
2021/05/19 11:06:29;;;;;;;3.00;2.70;;;;;;;;;;5061421;28;20529;-77
2021/05/19 11:09:15;;;;;;;3.70;3.23;;;;;;;;;;5049155;28;20498;-75
2021/05/19 11:11:41;;;;;;;3.17;2.80;;;;;;;;;;5062671;28;20542;-76
2021/05/19 11:14:22;;;;;;;4.33;2.20;;;;;;;;;;5068334;28;20454;-75
2021/05/19 11:19:25;;;;;;;2.33;2.00;;;;;;;;;;5065535;28;20518;-76
2021/05/19 11:21:58;;;;;;;2.27;2.07;;;;;;;;;;5061677;28;20446;-77
2021/05/19 11:24:26;;;;;;;2.40;2.10;;;;;;;;;;5051654;28;21001;-74
2021/05/19 11:26:53;;;;;;;3.47;3.17;;;;;;;;;;5048808;28;20415;-77
2021/05/19 11:29:19;;;;;;;2.40;1.90;;;;;;;;;;5058424;28;20484;-77
2021/05/19 11:31:48;;;;;;;2.67;2.47;;;;;;;;;;5049175;28;20410;-74
2021/05/19 11:34:22;;;;;;;2.40;2.20;;;;;;;;;;5056602;28;20425;-75
2021/05/19 11:36:56;;;;;;;2.43;2.20;;;;;;;;;;5069356;28;20786;-73
2021/05/19 11:39:31;;;;;;;3.50;2.77;;;;;;;;;;5067239;28;20465;-74
2021/05/19 11:42:16;;;;;;;5.87;3.13;;;;;;;;;;5054948;28;20512;-73
2021/05/19 11:44:53;;;;;;;2.50;1.93;;;;;;;;;;5059275;28;20485;-73
2021/05/19 11:47:39;;;;;;;3.10;2.40;;;;;;;;;;5051027;28;20403;-75
2021/05/19 11:50:17;;;;;;;2.77;2.37;;;;;;;;;;5049539;28;21000;-75
2021/05/19 11:52:55;;;;;;;3.10;2.70;;;;;;;;;;5054424;28;20423;-76
2021/05/19 11:55:28;;;;;;;3.37;3.00;;;;;;;;;;5068135;28;20946;-76
2021/05/19 11:58:07;;;;;;;5.90;2.50;;;;;;;;;;5063129;28;20517;-76
2021/05/19 12:00:37;;;;;;;3.37;3.07;;;;;;;;;;5068434;28;20442;-75
2021/05/19 12:03:03;;;;;;;3.60;3.20;;;;;;;;;;5052528;28;20400;-76
2021/05/19 12:05:46;;;;;;;2.60;2.40;;;;;;;;;;5052503;28;20408;-75
2021/05/19 12:08:13;;;;;;;3.03;2.83;;;;;;;;;;5061050;28;20422;-75
2021/05/19 12:10:41;;;;;;;2.83;2.60;;;;;;;;;;5059580;28;20518;-76
2021/05/19 12:13:07;;;;;;;2.80;2.47;;;;;;;;;;5056355;28;20463;-76
2021/05/19 12:15:34;;;;;;;2.47;2.27;;;;;;;;;;5056137;28;20416;-75
2021/05/19 12:18:00;;;;;;;2.43;2.10;;;;;;;;;;5053485;28;20938;-77
2021/05/19 12:20:27;;;;;;;2.80;2.40;;;;;;;;;;5052299;28;20470;-76
2021/05/19 12:23:03;;;;;;;3.17;2.23;;;;;;;;;;5050655;28;20427;-76
2021/05/19 12:25:31;;;;;;;2.10;1.80;;;;;;;;;;5052360;28;20431;-77
2021/05/19 12:28:02;;;;;;;2.30;1.90;;;;;;;;;;5058000;28;20914;-75
2021/05/19 12:30:29;;;;;;;2.77;2.20;;;;;;;;;;5052959;28;20474;-75
2021/05/19 12:32:58;;;;;;;2.83;2.20;;;;;;;;;;5050527;28;20412;-77
2021/05/19 12:35:26;;;;;;;3.00;2.17;;;;;;;;;;5051836;28;20483;-76
2021/05/19 12:37:56;;;;;;;2.77;2.47;;;;;;;;;;5056242;28;20415;-77
2021/05/19 12:40:26;;;;;;;3.10;2.30;;;;;;;;;;5054547;28;20539;-75
2021/05/19 12:42:55;;;;;;;2.20;1.70;;;;;;;;;;5052002;28;20494;-75
2021/05/19 12:45:23;;;;;;;2.97;1.70;;;;;;;;;;5072643;28;20996;-76
2021/05/19 12:48:09;;;;;;;6.07;5.53;;;;;;;;;;5053560;28;20506;-76
2021/05/19 12:50:36;;;;;;;2.83;2.00;;;;;;;;;;5054911;28;20439;-74
2021/05/19 12:53:02;;;;;;;2.70;2.00;;;;;;;;;;5051197;28;20785;-75
2021/05/19 12:55:28;;;;;;;4.23;2.50;;;;;;;;;;5065988;28;20426;-76
2021/05/19 12:58:05;;;;;;;2.57;1.93;;;;;;;;;;5051346;28;20434;-75
2021/05/19 13:00:31;;;;;;;2.30;1.80;;;;;;;;;;5073327;28;20458;-76
2021/05/19 13:02:57;;;;;;;2.37;1.93;;;;;;;;;;5051125;28;20475;-76
2021/05/19 13:05:26;;;;;;;2.70;2.10;;;;;;;;;;5065180;28;20433;-76
2021/05/19 13:07:52;;;;;;;2.40;2.10;;;;;;;;;;5068469;28;20457;-76
2021/05/19 13:10:23;;;;;;;2.30;2.00;;;;;;;;;;5062235;28;20468;-76
2021/05/19 13:12:53;;;;;;;2.93;2.30;;;;;;;;;;5068404;28;20441;-76
2021/05/19 13:15:33;;;;;;;2.70;1.90;;;;;;;;;;5080970;28;20894;-75
2021/05/19 13:18:12;;;;;;;3.73;2.40;;;;;;;;;;5063394;28;20439;-75
2021/05/19 13:20:45;;;;;;;2.73;2.10;;;;;;;;;;5054891;28;20442;-75
2021/05/19 13:23:12;;;;;;;2.53;1.90;;;;;;;;;;5068199;28;20437;-76
2021/05/19 13:25:38;;;;;;;3.60;2.43;;;;;;;;;;5068733;28;20446;-75
2021/05/19 13:28:07;;;;;;;2.43;2.23;;;;;;;;;;5078708;28;21112;-75
2021/05/19 13:30:34;;;;;;;2.90;2.40;;;;;;;;;;5059721;28;20449;-75
2021/05/19 13:38:29;;;;;;;3.63;1.90;;;;;;;;;;5041907;28;20954;-75
2021/05/19 13:40:55;;;;;;;2.83;1.90;;;;;;;;;;5073409;28;20430;-76
2021/05/19 13:43:21;;;;;;;2.20;1.50;;;;;;;;;;5066241;28;20466;-76
2021/05/19 13:45:48;;;;;;;2.97;1.80;;;;;;;;;;5069931;28;20439;-75
2021/05/19 13:48:14;;;;;;;3.00;1.97;;;;;;;;;;5070659;28;21024;-75
2021/05/19 13:50:40;;;;;;;2.40;1.60;;;;;;;;;;5069264;28;20489;-76
2021/05/19 13:53:06;;;;;;;2.40;1.70;;;;;;;;;;5064914;28;20420;-75
2021/05/19 13:55:32;;;;;;;2.97;1.70;;;;;;;;;;5077820;28;20527;-75
2021/05/19 13:58:01;;;;;;;2.30;1.60;;;;;;;;;;5070141;28;20460;-75
2021/05/19 14:00:27;;;;;;;2.77;1.40;;;;;;;;;;5070309;28;20473;-74
2021/05/19 14:02:53;;;;;;;2.53;1.77;;;;;;;;;;5070195;28;20434;-75
2021/05/19 14:05:24;;;;;;;2.30;1.60;;;;;;;;;;5070149;28;20783;-75
2021/05/19 14:07:51;;;;;;;2.43;1.63;;;;;;;;;;5077856;28;20437;-75
2021/05/19 14:10:18;;;;;;;3.00;1.93;;;;;;;;;;5077060;28;20442;-75
2021/05/19 14:12:47;;;;;;;2.93;2.23;;;;;;;;;;5068118;28;20423;-74
2021/05/19 14:15:22;;;;;;;21.37;19.00;;;;;;;;;;5075641;28;20582;-75
2021/05/19 14:28:34;;;;;;;3.83;3.20;;;;;;;;;;5070899;28;20529;-76
2021/05/19 14:31:01;;;;;;;3.23;2.93;;;;;;;;;;5072346;28;20465;-76
2021/05/19 14:33:27;;;;;;;3.50;3.20;;;;;;;;;;5070230;28;20433;-75
2021/05/19 15:00:40;;;;;;;4.75;4.35;;;;;;;;;;5049172;28;20232;-75
2021/05/19 15:03:06;;;;;;;6.70;3.95;;;;;;;;;;5062220;28;20189;-74
2021/05/19 15:05:32;;;;;;;4.27;3.97;;;;;;;;;;5048968;28;20184;-74
2021/05/19 15:07:58;;;;;;;4.80;4.40;;;;;;;;;;5064749;28;20524;-75
2021/05/19 15:10:24;;;;;;;5.50;5.10;;;;;;;;;;5048925;28;20243;-74
2021/05/19 15:12:50;;;;;;;5.80;5.20;;;;;;;;;;5068206;28;20207;-75
2021/05/19 15:15:16;;;;;;;7.18;6.50;;;;;;;;;;5067890;28;20481;-74
2021/05/19 15:17:42;;;;;;;6.82;6.32;;;;;;;;;;5071854;28;20181;-74
2021/05/19 15:20:08;;;;;;;6.85;6.35;;;;;;;;;;5069534;28;20318;-75
2021/05/19 15:22:34;;;;;;;6.18;5.65;;;;;;;;;;5054789;28;20181;-75
2021/05/19 15:25:00;;;;;;;6.20;5.70;;;;;;;;;;5067542;28;20218;-75